sensor_id;sensor_type;location;lat;lon;timestamp;temperature;humidity
44565;DHT22;30275;51.822;-0.326;2022-10-30T00:00:08;15.00;99.90
44565;DHT22;30275;51.822;-0.326;2022-10-30T00:02:34;14.90;99.90
44565;DHT22;30275;51.822;-0.326;2022-10-30T00:05:00;14.90;99.90
44565;DHT22;30275;51.822;-0.326;2022-10-30T00:07:25;14.90;99.90
44565;DHT22;30275;51.822;-0.326;2022-10-30T00:09:51;14.90;99.90
44565;DHT22;30275;51.822;-0.326;2022-10-30T00:12:16;14.70;99.90
44565;DHT22;30275;51.822;-0.326;2022-10-30T00:14:42;14.70;99.90
44565;DHT22;30275;51.822;-0.326;2022-10-30T00:17:08;14.70;99.90
44565;DHT22;30275;51.822;-0.326;2022-10-30T00:19:33;14.60;99.90
44565;DHT22;30275;51.822;-0.326;2022-10-30T00:21:59;14.70;99.90
44565;DHT22;30275;51.822;-0.326;2022-10-30T00:24:27;14.60;99.90
44565;DHT22;30275;51.822;-0.326;2022-10-30T00:26:53;14.50;99.90
44565;DHT22;30275;51.822;-0.326;2022-10-30T00:29:18;14.50;99.90
44565;DHT22;30275;51.822;-0.326;2022-10-30T00:31:44;14.40;99.90
44565;DHT22;30275;51.822;-0.326;2022-10-30T00:34:09;14.40;99.90
44565;DHT22;30275;51.822;-0.326;2022-10-30T00:36:35;14.40;99.90
44565;DHT22;30275;51.822;-0.326;2022-10-30T00:39:01;14.30;99.90
44565;DHT22;30275;51.822;-0.326;2022-10-30T00:41:28;14.30;99.90
44565;DHT22;30275;51.822;-0.326;2022-10-30T00:43:53;14.40;99.90
44565;DHT22;30275;51.822;-0.326;2022-10-30T00:46:33;14.40;99.90
44565;DHT22;30275;51.822;-0.326;2022-10-30T00:49:14;14.40;99.90
44565;DHT22;30275;51.822;-0.326;2022-10-30T00:51:44;14.40;99.90
44565;DHT22;30275;51.822;-0.326;2022-10-30T00:54:11;14.40;99.90
44565;DHT22;30275;51.822;-0.326;2022-10-30T00:56:39;14.30;99.90
44565;DHT22;30275;51.822;-0.326;2022-10-30T00:59:08;14.30;99.90
44565;DHT22;30275;51.822;-0.326;2022-10-30T01:01:39;14.20;99.90
44565;DHT22;30275;51.822;-0.326;2022-10-30T01:04:07;14.20;99.90
44565;DHT22;30275;51.822;-0.326;2022-10-30T01:06:35;14.30;99.90
44565;DHT22;30275;51.822;-0.326;2022-10-30T01:09:03;14.30;99.90
44565;DHT22;30275;51.822;-0.326;2022-10-30T01:11:29;14.30;99.90
44565;DHT22;30275;51.822;-0.326;2022-10-30T01:13:58;14.20;99.90
44565;DHT22;30275;51.822;-0.326;2022-10-30T01:19:24;14.20;99.90
44565;DHT22;30275;51.822;-0.326;2022-10-30T01:22:09;14.10;99.90
44565;DHT22;30275;51.822;-0.326;2022-10-30T01:36:17;13.90;99.90
44565;DHT22;30275;51.822;-0.326;2022-10-30T01:38:51;13.90;99.90
44565;DHT22;30275;51.822;-0.326;2022-10-30T01:41:18;13.90;99.90
44565;DHT22;30275;51.822;-0.326;2022-10-30T01:43:45;14.10;99.90
44565;DHT22;30275;51.822;-0.326;2022-10-30T01:46:35;14.10;99.90
44565;DHT22;30275;51.822;-0.326;2022-10-30T01:52:55;14.00;99.90
44565;DHT22;30275;51.822;-0.326;2022-10-30T01:55:21;14.00;99.90
44565;DHT22;30275;51.822;-0.326;2022-10-30T01:58:11;14.10;99.90
44565;DHT22;30275;51.822;-0.326;2022-10-30T02:00:41;14.20;99.90
44565;DHT22;30275;51.822;-0.326;2022-10-30T02:03:08;14.10;99.90
44565;DHT22;30275;51.822;-0.326;2022-10-30T02:05:41;14.20;99.90
44565;DHT22;30275;51.822;-0.326;2022-10-30T02:08:07;14.20;99.90
44565;DHT22;30275;51.822;-0.326;2022-10-30T02:10:34;14.20;99.90
44565;DHT22;30275;51.822;-0.326;2022-10-30T02:13:01;14.20;99.90
44565;DHT22;30275;51.822;-0.326;2022-10-30T02:15:28;14.20;99.90
44565;DHT22;30275;51.822;-0.326;2022-10-30T02:17:55;14.20;99.90
44565;DHT22;30275;51.822;-0.326;2022-10-30T02:20:21;14.30;99.90
44565;DHT22;30275;51.822;-0.326;2022-10-30T02:22:48;14.10;99.90
44565;DHT22;30275;51.822;-0.326;2022-10-30T02:25:14;14.00;99.90
44565;DHT22;30275;51.822;-0.326;2022-10-30T02:27:39;14.10;99.90
44565;DHT22;30275;51.822;-0.326;2022-10-30T02:30:06;14.10;99.90
44565;DHT22;30275;51.822;-0.326;2022-10-30T02:32:31;14.10;99.90
44565;DHT22;30275;51.822;-0.326;2022-10-30T02:34:57;14.10;99.90
44565;DHT22;30275;51.822;-0.326;2022-10-30T02:37:23;14.00;99.90
44565;DHT22;30275;51.822;-0.326;2022-10-30T02:39:49;14.20;99.90
44565;DHT22;30275;51.822;-0.326;2022-10-30T02:42:14;14.10;99.90
44565;DHT22;30275;51.822;-0.326;2022-10-30T02:44:40;14.10;99.90
44565;DHT22;30275;51.822;-0.326;2022-10-30T02:47:06;14.00;99.90
44565;DHT22;30275;51.822;-0.326;2022-10-30T02:49:31;13.90;99.90
44565;DHT22;30275;51.822;-0.326;2022-10-30T02:51:57;13.80;99.90
44565;DHT22;30275;51.822;-0.326;2022-10-30T02:54:22;13.80;99.90
44565;DHT22;30275;51.822;-0.326;2022-10-30T02:56:48;13.80;99.90
44565;DHT22;30275;51.822;-0.326;2022-10-30T02:59:14;13.70;99.90
44565;DHT22;30275;51.822;-0.326;2022-10-30T03:01:40;13.70;99.90
44565;DHT22;30275;51.822;-0.326;2022-10-30T03:04:05;13.70;99.90
44565;DHT22;30275;51.822;-0.326;2022-10-30T03:06:31;13.70;99.90
44565;DHT22;30275;51.822;-0.326;2022-10-30T03:08:57;13.60;99.90
44565;DHT22;30275;51.822;-0.326;2022-10-30T03:11:23;13.60;99.90
44565;DHT22;30275;51.822;-0.326;2022-10-30T03:13:48;13.60;99.90
44565;DHT22;30275;51.822;-0.326;2022-10-30T03:16:17;13.60;99.90
44565;DHT22;30275;51.822;-0.326;2022-10-30T03:18:43;13.50;99.90
44565;DHT22;30275;51.822;-0.326;2022-10-30T03:21:12;13.50;99.90
44565;DHT22;30275;51.822;-0.326;2022-10-30T03:23:38;13.50;99.90
44565;DHT22;30275;51.822;-0.326;2022-10-30T03:26:04;13.50;99.90
44565;DHT22;30275;51.822;-0.326;2022-10-30T03:28:30;13.50;99.90
44565;DHT22;30275;51.822;-0.326;2022-10-30T03:31:01;13.50;99.90
44565;DHT22;30275;51.822;-0.326;2022-10-30T03:33:27;13.40;99.90
44565;DHT22;30275;51.822;-0.326;2022-10-30T03:35:53;13.30;99.90
44565;DHT22;30275;51.822;-0.326;2022-10-30T03:38:19;13.30;99.90
44565;DHT22;30275;51.822;-0.326;2022-10-30T03:40:45;13.30;99.90
44565;DHT22;30275;51.822;-0.326;2022-10-30T03:43:10;13.30;99.90
44565;DHT22;30275;51.822;-0.326;2022-10-30T03:45:36;13.20;99.90
44565;DHT22;30275;51.822;-0.326;2022-10-30T03:48:03;13.20;99.90
44565;DHT22;30275;51.822;-0.326;2022-10-30T03:50:29;13.20;99.90
44565;DHT22;30275;51.822;-0.326;2022-10-30T03:52:55;13.10;99.90
44565;DHT22;30275;51.822;-0.326;2022-10-30T03:55:21;13.10;99.90
44565;DHT22;30275;51.822;-0.326;2022-10-30T03:57:47;13.10;99.90
44565;DHT22;30275;51.822;-0.326;2022-10-30T04:03:16;13.10;99.90
44565;DHT22;30275;51.822;-0.326;2022-10-30T04:05:42;13.00;99.90
44565;DHT22;30275;51.822;-0.326;2022-10-30T04:08:11;13.10;99.90
44565;DHT22;30275;51.822;-0.326;2022-10-30T04:10:41;13.10;99.90
44565;DHT22;30275;51.822;-0.326;2022-10-30T04:13:09;13.10;99.90
44565;DHT22;30275;51.822;-0.326;2022-10-30T04:15:35;13.00;99.90
44565;DHT22;30275;51.822;-0.326;2022-10-30T04:18:01;13.00;99.90
44565;DHT22;30275;51.822;-0.326;2022-10-30T04:20:28;13.00;99.90
44565;DHT22;30275;51.822;-0.326;2022-10-30T04:23:02;13.00;99.90
44565;DHT22;30275;51.822;-0.326;2022-10-30T04:25:28;13.10;99.90
44565;DHT22;30275;51.822;-0.326;2022-10-30T04:27:54;13.00;99.90
44565;DHT22;30275;51.822;-0.326;2022-10-30T04:30:20;13.00;99.90
44565;DHT22;30275;51.822;-0.326;2022-10-30T04:32:53;13.00;99.90
44565;DHT22;30275;51.822;-0.326;2022-10-30T04:35:22;13.10;99.90
44565;DHT22;30275;51.822;-0.326;2022-10-30T04:37:59;13.10;99.90
44565;DHT22;30275;51.822;-0.326;2022-10-30T04:40:28;13.20;99.90
44565;DHT22;30275;51.822;-0.326;2022-10-30T04:42:54;13.30;99.90
44565;DHT22;30275;51.822;-0.326;2022-10-30T04:45:20;13.20;99.90
44565;DHT22;30275;51.822;-0.326;2022-10-30T04:47:46;13.20;99.90
44565;DHT22;30275;51.822;-0.326;2022-10-30T04:50:12;13.20;99.90
44565;DHT22;30275;51.822;-0.326;2022-10-30T04:52:38;13.20;99.90
44565;DHT22;30275;51.822;-0.326;2022-10-30T04:55:04;13.30;99.90
44565;DHT22;30275;51.822;-0.326;2022-10-30T04:57:30;13.20;99.90
44565;DHT22;30275;51.822;-0.326;2022-10-30T04:59:59;13.20;99.90
44565;DHT22;30275;51.822;-0.326;2022-10-30T05:02:25;13.20;99.90
44565;DHT22;30275;51.822;-0.326;2022-10-30T05:04:51;13.30;99.90
44565;DHT22;30275;51.822;-0.326;2022-10-30T05:07:17;13.40;99.90
44565;DHT22;30275;51.822;-0.326;2022-10-30T05:09:43;13.30;99.90
44565;DHT22;30275;51.822;-0.326;2022-10-30T05:12:09;13.40;99.90
44565;DHT22;30275;51.822;-0.326;2022-10-30T05:14:35;13.40;99.90
44565;DHT22;30275;51.822;-0.326;2022-10-30T05:17:01;13.40;99.90
44565;DHT22;30275;51.822;-0.326;2022-10-30T05:19:26;13.30;99.90
44565;DHT22;30275;51.822;-0.326;2022-10-30T05:21:52;13.30;99.90
44565;DHT22;30275;51.822;-0.326;2022-10-30T05:24:18;13.30;99.90
44565;DHT22;30275;51.822;-0.326;2022-10-30T05:26:44;13.20;99.90
44565;DHT22;30275;51.822;-0.326;2022-10-30T05:29:10;13.20;99.90
44565;DHT22;30275;51.822;-0.326;2022-10-30T05:31:36;13.30;99.90
44565;DHT22;30275;51.822;-0.326;2022-10-30T05:34:02;13.30;99.90
44565;DHT22;30275;51.822;-0.326;2022-10-30T05:36:29;13.20;99.90
44565;DHT22;30275;51.822;-0.326;2022-10-30T05:38:54;13.20;99.90
44565;DHT22;30275;51.822;-0.326;2022-10-30T05:41:20;13.20;99.90
44565;DHT22;30275;51.822;-0.326;2022-10-30T05:43:45;13.20;99.90
44565;DHT22;30275;51.822;-0.326;2022-10-30T05:46:11;13.20;99.90
44565;DHT22;30275;51.822;-0.326;2022-10-30T05:48:36;13.20;99.90
44565;DHT22;30275;51.822;-0.326;2022-10-30T05:51:02;13.20;99.90
44565;DHT22;30275;51.822;-0.326;2022-10-30T05:53:28;13.30;99.90
44565;DHT22;30275;51.822;-0.326;2022-10-30T05:55:58;13.30;99.90
44565;DHT22;30275;51.822;-0.326;2022-10-30T05:58:24;13.30;99.90
44565;DHT22;30275;51.822;-0.326;2022-10-30T06:00:51;13.20;99.90
44565;DHT22;30275;51.822;-0.326;2022-10-30T06:03:16;13.30;99.90
44565;DHT22;30275;51.822;-0.326;2022-10-30T06:05:44;13.30;99.90
44565;DHT22;30275;51.822;-0.326;2022-10-30T06:08:10;13.40;99.90
44565;DHT22;30275;51.822;-0.326;2022-10-30T06:10:36;13.40;99.90
44565;DHT22;30275;51.822;-0.326;2022-10-30T06:13:04;13.40;99.90
44565;DHT22;30275;51.822;-0.326;2022-10-30T06:15:31;13.40;99.90
44565;DHT22;30275;51.822;-0.326;2022-10-30T06:17:57;13.40;99.90
44565;DHT22;30275;51.822;-0.326;2022-10-30T06:20:25;13.40;99.90
44565;DHT22;30275;51.822;-0.326;2022-10-30T06:25:23;13.40;99.90
44565;DHT22;30275;51.822;-0.326;2022-10-30T06:27:49;13.40;99.90
44565;DHT22;30275;51.822;-0.326;2022-10-30T06:30:16;13.40;99.90
44565;DHT22;30275;51.822;-0.326;2022-10-30T06:32:42;13.50;99.90
44565;DHT22;30275;51.822;-0.326;2022-10-30T06:35:08;13.50;99.90
44565;DHT22;30275;51.822;-0.326;2022-10-30T06:37:34;13.60;99.90
44565;DHT22;30275;51.822;-0.326;2022-10-30T06:39:59;13.60;99.90
44565;DHT22;30275;51.822;-0.326;2022-10-30T06:42:25;13.60;99.90
44565;DHT22;30275;51.822;-0.326;2022-10-30T06:44:51;13.70;99.90
44565;DHT22;30275;51.822;-0.326;2022-10-30T06:47:17;13.60;99.90
44565;DHT22;30275;51.822;-0.326;2022-10-30T06:49:42;13.60;99.90
44565;DHT22;30275;51.822;-0.326;2022-10-30T06:55:29;13.60;99.90
44565;DHT22;30275;51.822;-0.326;2022-10-30T06:57:56;13.70;99.90
44565;DHT22;30275;51.822;-0.326;2022-10-30T07:00:22;13.60;99.90
44565;DHT22;30275;51.822;-0.326;2022-10-30T07:02:55;13.80;99.90
44565;DHT22;30275;51.822;-0.326;2022-10-30T07:05:21;13.80;99.90
44565;DHT22;30275;51.822;-0.326;2022-10-30T07:07:47;13.80;99.90
44565;DHT22;30275;51.822;-0.326;2022-10-30T07:10:12;13.80;99.90
44565;DHT22;30275;51.822;-0.326;2022-10-30T07:12:38;13.90;99.90
44565;DHT22;30275;51.822;-0.326;2022-10-30T07:15:04;13.90;99.90
44565;DHT22;30275;51.822;-0.326;2022-10-30T07:17:29;14.00;99.90
44565;DHT22;30275;51.822;-0.326;2022-10-30T07:19:55;13.90;99.90
44565;DHT22;30275;51.822;-0.326;2022-10-30T07:22:20;13.90;99.90
44565;DHT22;30275;51.822;-0.326;2022-10-30T07:24:46;13.90;99.90
44565;DHT22;30275;51.822;-0.326;2022-10-30T07:27:12;13.90;99.90
44565;DHT22;30275;51.822;-0.326;2022-10-30T07:29:37;13.90;99.90
44565;DHT22;30275;51.822;-0.326;2022-10-30T07:32:03;13.90;99.90
44565;DHT22;30275;51.822;-0.326;2022-10-30T07:34:29;14.00;99.90
44565;DHT22;30275;51.822;-0.326;2022-10-30T07:36:55;14.10;99.90
44565;DHT22;30275;51.822;-0.326;2022-10-30T07:39:20;14.10;99.90
44565;DHT22;30275;51.822;-0.326;2022-10-30T07:41:48;14.20;99.90
44565;DHT22;30275;51.822;-0.326;2022-10-30T07:44:14;14.10;99.90
44565;DHT22;30275;51.822;-0.326;2022-10-30T07:46:40;14.10;99.90
44565;DHT22;30275;51.822;-0.326;2022-10-30T07:49:05;14.10;99.90
44565;DHT22;30275;51.822;-0.326;2022-10-30T07:51:31;14.10;99.90
44565;DHT22;30275;51.822;-0.326;2022-10-30T07:53:57;14.20;99.90
44565;DHT22;30275;51.822;-0.326;2022-10-30T07:56:22;14.20;99.90
44565;DHT22;30275;51.822;-0.326;2022-10-30T07:58:48;14.10;99.90
44565;DHT22;30275;51.822;-0.326;2022-10-30T08:01:13;14.20;99.90
44565;DHT22;30275;51.822;-0.326;2022-10-30T08:03:39;14.10;99.90
44565;DHT22;30275;51.822;-0.326;2022-10-30T08:06:05;14.20;99.90
44565;DHT22;30275;51.822;-0.326;2022-10-30T08:08:30;14.20;99.90
44565;DHT22;30275;51.822;-0.326;2022-10-30T08:10:57;14.20;99.90
44565;DHT22;30275;51.822;-0.326;2022-10-30T08:13:22;14.10;99.90
44565;DHT22;30275;51.822;-0.326;2022-10-30T08:15:48;14.10;99.90
44565;DHT22;30275;51.822;-0.326;2022-10-30T08:18:14;14.00;99.90
44565;DHT22;30275;51.822;-0.326;2022-10-30T08:20:40;14.00;99.90
44565;DHT22;30275;51.822;-0.326;2022-10-30T08:23:05;14.00;99.90
44565;DHT22;30275;51.822;-0.326;2022-10-30T08:25:31;14.00;99.90
44565;DHT22;30275;51.822;-0.326;2022-10-30T08:28:03;14.00;99.90
44565;DHT22;30275;51.822;-0.326;2022-10-30T08:30:31;14.10;99.90
44565;DHT22;30275;51.822;-0.326;2022-10-30T08:33:00;14.10;99.90
44565;DHT22;30275;51.822;-0.326;2022-10-30T08:35:26;14.20;99.90
44565;DHT22;30275;51.822;-0.326;2022-10-30T08:37:56;14.10;99.90
44565;DHT22;30275;51.822;-0.326;2022-10-30T08:40:22;14.10;99.90
44565;DHT22;30275;51.822;-0.326;2022-10-30T08:42:51;14.10;99.90
44565;DHT22;30275;51.822;-0.326;2022-10-30T08:45:17;14.10;99.90
44565;DHT22;30275;51.822;-0.326;2022-10-30T08:47:43;14.20;99.90
44565;DHT22;30275;51.822;-0.326;2022-10-30T08:50:08;14.20;99.90
44565;DHT22;30275;51.822;-0.326;2022-10-30T08:52:34;14.10;99.90
44565;DHT22;30275;51.822;-0.326;2022-10-30T08:55:00;14.10;99.90
44565;DHT22;30275;51.822;-0.326;2022-10-30T08:57:26;14.20;99.90
44565;DHT22;30275;51.822;-0.326;2022-10-30T08:59:51;14.30;99.90
44565;DHT22;30275;51.822;-0.326;2022-10-30T09:02:17;14.20;99.90
44565;DHT22;30275;51.822;-0.326;2022-10-30T09:04:42;14.10;99.90
44565;DHT22;30275;51.822;-0.326;2022-10-30T09:07:08;14.10;99.90
44565;DHT22;30275;51.822;-0.326;2022-10-30T09:09:34;14.10;99.90
44565;DHT22;30275;51.822;-0.326;2022-10-30T09:11:59;14.00;99.90
44565;DHT22;30275;51.822;-0.326;2022-10-30T09:14:25;14.00;99.90
44565;DHT22;30275;51.822;-0.326;2022-10-30T09:16:50;14.00;99.90
44565;DHT22;30275;51.822;-0.326;2022-10-30T09:19:16;14.00;99.90
44565;DHT22;30275;51.822;-0.326;2022-10-30T09:21:42;14.00;99.90
44565;DHT22;30275;51.822;-0.326;2022-10-30T09:24:07;14.10;99.90
44565;DHT22;30275;51.822;-0.326;2022-10-30T09:26:33;14.10;99.90
44565;DHT22;30275;51.822;-0.326;2022-10-30T09:28:58;14.10;99.90
44565;DHT22;30275;51.822;-0.326;2022-10-30T09:31:24;14.10;99.90
44565;DHT22;30275;51.822;-0.326;2022-10-30T09:33:50;14.10;99.90
44565;DHT22;30275;51.822;-0.326;2022-10-30T09:36:15;14.20;99.90
44565;DHT22;30275;51.822;-0.326;2022-10-30T09:38:42;14.30;99.90
44565;DHT22;30275;51.822;-0.326;2022-10-30T09:49:51;14.10;99.90
44565;DHT22;30275;51.822;-0.326;2022-10-30T09:57:41;14.20;99.90
44565;DHT22;30275;51.822;-0.326;2022-10-30T10:00:15;14.30;99.90
44565;DHT22;30275;51.822;-0.326;2022-10-30T10:08:19;14.40;99.90
44565;DHT22;30275;51.822;-0.326;2022-10-30T10:10:51;14.50;99.90
44565;DHT22;30275;51.822;-0.326;2022-10-30T10:18:42;14.90;99.90
44565;DHT22;30275;51.822;-0.326;2022-10-30T10:21:26;15.10;99.90
44565;DHT22;30275;51.822;-0.326;2022-10-30T10:24:01;15.20;99.90
44565;DHT22;30275;51.822;-0.326;2022-10-30T10:26:49;15.20;99.90
44565;DHT22;30275;51.822;-0.326;2022-10-30T10:34:34;15.40;99.90
44565;DHT22;30275;51.822;-0.326;2022-10-30T10:40:13;15.10;99.90
44565;DHT22;30275;51.822;-0.326;2022-10-30T10:50:55;14.80;99.90
44565;DHT22;30275;51.822;-0.326;2022-10-30T10:53:25;14.80;99.90
44565;DHT22;30275;51.822;-0.326;2022-10-30T10:55:55;14.70;99.90
44565;DHT22;30275;51.822;-0.326;2022-10-30T10:58:31;14.70;99.90
44565;DHT22;30275;51.822;-0.326;2022-10-30T11:00:58;14.70;99.90
44565;DHT22;30275;51.822;-0.326;2022-10-30T11:03:42;14.50;99.90
44565;DHT22;30275;51.822;-0.326;2022-10-30T11:06:19;14.50;99.90
44565;DHT22;30275;51.822;-0.326;2022-10-30T11:08:46;14.60;99.90
44565;DHT22;30275;51.822;-0.326;2022-10-30T11:11:13;14.60;99.90
44565;DHT22;30275;51.822;-0.326;2022-10-30T11:13:41;14.60;99.90
44565;DHT22;30275;51.822;-0.326;2022-10-30T11:16:34;14.60;99.90
44565;DHT22;30275;51.822;-0.326;2022-10-30T11:19:07;14.50;99.90
44565;DHT22;30275;51.822;-0.326;2022-10-30T11:21:37;14.50;99.90
44565;DHT22;30275;51.822;-0.326;2022-10-30T11:24:25;14.50;99.90
44565;DHT22;30275;51.822;-0.326;2022-10-30T11:26:53;14.60;99.90
44565;DHT22;30275;51.822;-0.326;2022-10-30T11:29:28;14.70;99.90
44565;DHT22;30275;51.822;-0.326;2022-10-30T11:32:01;14.80;99.90
44565;DHT22;30275;51.822;-0.326;2022-10-30T11:34:34;14.90;99.90
44565;DHT22;30275;51.822;-0.326;2022-10-30T11:37:01;15.10;99.90
44565;DHT22;30275;51.822;-0.326;2022-10-30T11:39:29;15.30;99.90
44565;DHT22;30275;51.822;-0.326;2022-10-30T11:44:55;15.20;99.90
44565;DHT22;30275;51.822;-0.326;2022-10-30T11:47:35;15.20;99.90
44565;DHT22;30275;51.822;-0.326;2022-10-30T11:50:05;15.30;99.90
44565;DHT22;30275;51.822;-0.326;2022-10-30T11:52:36;15.20;99.90
44565;DHT22;30275;51.822;-0.326;2022-10-30T11:55:19;15.20;99.90
44565;DHT22;30275;51.822;-0.326;2022-10-30T11:57:54;15.20;99.90
44565;DHT22;30275;51.822;-0.326;2022-10-30T12:00:27;15.10;99.90
44565;DHT22;30275;51.822;-0.326;2022-10-30T12:02:56;15.00;99.90
44565;DHT22;30275;51.822;-0.326;2022-10-30T12:05:38;14.90;99.90
44565;DHT22;30275;51.822;-0.326;2022-10-30T12:10:38;14.90;99.90
44565;DHT22;30275;51.822;-0.326;2022-10-30T12:13:16;14.90;99.90
44565;DHT22;30275;51.822;-0.326;2022-10-30T12:15:43;15.00;99.90
44565;DHT22;30275;51.822;-0.326;2022-10-30T12:18:19;15.20;99.90
44565;DHT22;30275;51.822;-0.326;2022-10-30T12:20:49;15.30;99.90
44565;DHT22;30275;51.822;-0.326;2022-10-30T12:23:19;15.40;99.90
44565;DHT22;30275;51.822;-0.326;2022-10-30T12:25:48;15.30;99.90
44565;DHT22;30275;51.822;-0.326;2022-10-30T12:28:20;15.30;99.90
44565;DHT22;30275;51.822;-0.326;2022-10-30T12:33:26;15.40;99.90
44565;DHT22;30275;51.822;-0.326;2022-10-30T12:36:02;15.30;99.90
44565;DHT22;30275;51.822;-0.326;2022-10-30T12:41:21;15.10;99.90
44565;DHT22;30275;51.822;-0.326;2022-10-30T12:43:56;15.10;99.90
44565;DHT22;30275;51.822;-0.326;2022-10-30T12:46:32;15.10;99.90
44565;DHT22;30275;51.822;-0.326;2022-10-30T12:52:07;15.10;99.90
44565;DHT22;30275;51.822;-0.326;2022-10-30T12:55:02;15.30;99.90
44565;DHT22;30275;51.822;-0.326;2022-10-30T12:57:36;15.30;99.90
44565;DHT22;30275;51.822;-0.326;2022-10-30T13:00:10;15.40;99.90
44565;DHT22;30275;51.822;-0.326;2022-10-30T13:02:59;15.40;99.90
44565;DHT22;30275;51.822;-0.326;2022-10-30T13:05:46;15.50;99.90
44565;DHT22;30275;51.822;-0.326;2022-10-30T13:10:52;15.50;99.90
44565;DHT22;30275;51.822;-0.326;2022-10-30T13:13:41;15.50;99.90
44565;DHT22;30275;51.822;-0.326;2022-10-30T13:16:13;15.50;99.90
44565;DHT22;30275;51.822;-0.326;2022-10-30T13:18:40;15.50;99.90
44565;DHT22;30275;51.822;-0.326;2022-10-30T13:24:20;15.50;99.90
44565;DHT22;30275;51.822;-0.326;2022-10-30T13:27:05;15.50;99.90
44565;DHT22;30275;51.822;-0.326;2022-10-30T13:40:45;15.70;99.90
44565;DHT22;30275;51.822;-0.326;2022-10-30T13:52:15;16.90;99.90
44565;DHT22;30275;51.822;-0.326;2022-10-30T13:57:33;16.90;99.90
44565;DHT22;30275;51.822;-0.326;2022-10-30T14:00:21;16.90;99.90
44565;DHT22;30275;51.822;-0.326;2022-10-30T14:05:41;16.50;99.90
44565;DHT22;30275;51.822;-0.326;2022-10-30T14:10:57;16.00;99.90
44565;DHT22;30275;51.822;-0.326;2022-10-30T14:13:25;15.90;99.90
44565;DHT22;30275;51.822;-0.326;2022-10-30T14:15:55;15.90;99.90
44565;DHT22;30275;51.822;-0.326;2022-10-30T14:18:26;15.90;99.90
44565;DHT22;30275;51.822;-0.326;2022-10-30T14:20:54;16.10;99.90
44565;DHT22;30275;51.822;-0.326;2022-10-30T14:23:36;16.00;99.90
44565;DHT22;30275;51.822;-0.326;2022-10-30T14:28:39;15.80;99.90
44565;DHT22;30275;51.822;-0.326;2022-10-30T14:31:13;15.60;99.90
44565;DHT22;30275;51.822;-0.326;2022-10-30T14:41:46;14.80;99.90
44565;DHT22;30275;51.822;-0.326;2022-10-30T14:50:17;14.10;99.90
44565;DHT22;30275;51.822;-0.326;2022-10-30T14:55:35;13.80;99.90
44565;DHT22;30275;51.822;-0.326;2022-10-30T15:08:32;14.00;99.90
44565;DHT22;30275;51.822;-0.326;2022-10-30T15:14:25;14.40;99.90
44565;DHT22;30275;51.822;-0.326;2022-10-30T15:16:52;14.60;99.90
44565;DHT22;30275;51.822;-0.326;2022-10-30T15:19:20;14.70;99.90
44565;DHT22;30275;51.822;-0.326;2022-10-30T15:21:50;14.70;99.90
44565;DHT22;30275;51.822;-0.326;2022-10-30T15:24:19;14.70;99.90
44565;DHT22;30275;51.822;-0.326;2022-10-30T15:26:51;14.80;99.90
44565;DHT22;30275;51.822;-0.326;2022-10-30T15:29:23;14.70;99.90
44565;DHT22;30275;51.822;-0.326;2022-10-30T15:32:01;14.80;99.90
44565;DHT22;30275;51.822;-0.326;2022-10-30T15:34:28;14.70;99.90
44565;DHT22;30275;51.822;-0.326;2022-10-30T15:36:54;14.70;99.90
44565;DHT22;30275;51.822;-0.326;2022-10-30T15:39:20;14.70;99.90
44565;DHT22;30275;51.822;-0.326;2022-10-30T15:42:00;14.70;99.90
44565;DHT22;30275;51.822;-0.326;2022-10-30T15:44:28;14.80;99.90
44565;DHT22;30275;51.822;-0.326;2022-10-30T15:46:56;14.80;99.90
44565;DHT22;30275;51.822;-0.326;2022-10-30T15:49:40;14.80;99.90
44565;DHT22;30275;51.822;-0.326;2022-10-30T15:52:16;14.80;99.90
44565;DHT22;30275;51.822;-0.326;2022-10-30T15:54:45;14.80;99.90
44565;DHT22;30275;51.822;-0.326;2022-10-30T15:57:29;14.80;99.90
44565;DHT22;30275;51.822;-0.326;2022-10-30T15:59:58;14.70;99.90
44565;DHT22;30275;51.822;-0.326;2022-10-30T16:02:25;14.60;99.90
44565;DHT22;30275;51.822;-0.326;2022-10-30T16:04:52;14.60;99.90
44565;DHT22;30275;51.822;-0.326;2022-10-30T16:07:23;14.60;99.90
44565;DHT22;30275;51.822;-0.326;2022-10-30T16:09:56;14.50;99.90
44565;DHT22;30275;51.822;-0.326;2022-10-30T16:12:27;14.50;99.90
44565;DHT22;30275;51.822;-0.326;2022-10-30T16:14:54;14.50;99.90
44565;DHT22;30275;51.822;-0.326;2022-10-30T16:17:20;14.50;99.90
44565;DHT22;30275;51.822;-0.326;2022-10-30T16:19:49;14.30;99.90
44565;DHT22;30275;51.822;-0.326;2022-10-30T16:22:23;14.20;99.90
44565;DHT22;30275;51.822;-0.326;2022-10-30T16:24:49;14.30;99.90
44565;DHT22;30275;51.822;-0.326;2022-10-30T16:27:17;14.20;99.90
44565;DHT22;30275;51.822;-0.326;2022-10-30T16:29:45;14.20;99.90
44565;DHT22;30275;51.822;-0.326;2022-10-30T16:32:14;14.00;99.90
44565;DHT22;30275;51.822;-0.326;2022-10-30T16:34:41;14.00;99.90
44565;DHT22;30275;51.822;-0.326;2022-10-30T16:37:18;14.00;99.90
44565;DHT22;30275;51.822;-0.326;2022-10-30T16:39:45;14.00;99.90
44565;DHT22;30275;51.822;-0.326;2022-10-30T16:42:39;14.00;99.90
44565;DHT22;30275;51.822;-0.326;2022-10-30T16:47:37;14.00;99.90
44565;DHT22;30275;51.822;-0.326;2022-10-30T16:50:05;13.90;99.90
44565;DHT22;30275;51.822;-0.326;2022-10-30T16:52:34;13.90;99.90
44565;DHT22;30275;51.822;-0.326;2022-10-30T16:55:08;13.80;99.90
44565;DHT22;30275;51.822;-0.326;2022-10-30T16:57:42;13.80;99.90
44565;DHT22;30275;51.822;-0.326;2022-10-30T17:00:19;13.80;99.90
44565;DHT22;30275;51.822;-0.326;2022-10-30T17:02:47;13.80;99.90
44565;DHT22;30275;51.822;-0.326;2022-10-30T17:05:28;13.70;99.90
44565;DHT22;30275;51.822;-0.326;2022-10-30T17:07:55;13.70;99.90
44565;DHT22;30275;51.822;-0.326;2022-10-30T17:10:42;13.60;99.90
44565;DHT22;30275;51.822;-0.326;2022-10-30T17:18:50;13.70;99.90
44565;DHT22;30275;51.822;-0.326;2022-10-30T17:21:22;13.60;99.90
44565;DHT22;30275;51.822;-0.326;2022-10-30T17:23:51;13.60;99.90
44565;DHT22;30275;51.822;-0.326;2022-10-30T17:26:18;13.60;99.90
44565;DHT22;30275;51.822;-0.326;2022-10-30T17:28:45;13.50;99.90
44565;DHT22;30275;51.822;-0.326;2022-10-30T17:33:44;13.40;99.90
44565;DHT22;30275;51.822;-0.326;2022-10-30T17:36:11;13.40;99.90
44565;DHT22;30275;51.822;-0.326;2022-10-30T17:38:37;13.40;99.90
44565;DHT22;30275;51.822;-0.326;2022-10-30T17:41:03;13.50;99.90
44565;DHT22;30275;51.822;-0.326;2022-10-30T17:43:32;13.50;99.90
44565;DHT22;30275;51.822;-0.326;2022-10-30T17:45:58;13.50;99.90
44565;DHT22;30275;51.822;-0.326;2022-10-30T17:48:27;13.40;99.90
44565;DHT22;30275;51.822;-0.326;2022-10-30T17:50:53;13.40;99.90
44565;DHT22;30275;51.822;-0.326;2022-10-30T17:53:22;13.30;99.90
44565;DHT22;30275;51.822;-0.326;2022-10-30T17:58:19;13.20;99.90
44565;DHT22;30275;51.822;-0.326;2022-10-30T18:00:44;13.20;99.90
44565;DHT22;30275;51.822;-0.326;2022-10-30T18:03:11;13.20;99.90
44565;DHT22;30275;51.822;-0.326;2022-10-30T18:05:37;13.20;99.90
44565;DHT22;30275;51.822;-0.326;2022-10-30T18:08:04;13.20;99.90